Glenola, North Carolina
Current Conditions -  °F | °C
As of 8:54 AM on Saturday 20 Dec 2014 (Local Time) from KINT Reporting Station
Light Snow Light Snow  
Wind Chill: 27°   Ceiling: 3600
Heat Index: 33°   Visibility: 5mi
Dew Point: 26°   Wind: 7mph
Humidity: 75%   Direction: 30°NNE
Pressure: 30.28"   Gusts: NA
Location:  35.9808°N, 80.1272°W
Report Text: KINT 201354Z 03006KT 5SM -SN BKN036 OVC060 01/M03 A3028 RMK AO2 SNB40 SLP257 P0000 T00061033
Loading
Personal Weather Stations






























Interactive Weather Map New forecast layout! Learn more

10-Day Weather Forecast

Advertisements
Track Severe Weather on mobile